createdAt,value
2018-01-25T00:00:54.787Z,2.53
2018-01-25T00:03:23.064Z,6.23
2018-01-25T00:05:51.298Z,2.87
2018-01-25T00:08:19.520Z,1.90
2018-01-25T00:10:48.564Z,6.97
2018-01-25T00:13:17.953Z,0.80
2018-01-25T00:15:47.539Z,0.83
2018-01-25T00:18:16.473Z,0.80
2018-01-25T00:20:44.700Z,0.73
2018-01-25T00:23:13.712Z,1.00
2018-01-25T00:25:41.995Z,1.73
2018-01-25T00:28:11.563Z,0.90
2018-01-25T00:30:40.055Z,1.23
2018-01-25T00:33:09.099Z,1.17
2018-01-25T00:35:38.820Z,1.23
2018-01-25T00:38:08.552Z,0.97
2018-01-25T00:40:37.580Z,1.70
2018-01-25T00:43:06.563Z,1.40
2018-01-25T00:45:35.193Z,1.50
2018-01-25T00:48:04.211Z,2.00
2018-01-25T00:50:33.576Z,3.23
2018-01-25T00:53:01.830Z,3.77
2018-01-25T00:55:30.096Z,6.10
2018-01-25T00:57:58.318Z,5.43
2018-01-25T01:00:26.539Z,2.93
2018-01-25T01:02:55.564Z,5.40
2018-01-25T01:05:25.145Z,2.73
2018-01-25T01:07:53.654Z,2.33
2018-01-25T01:10:21.912Z,2.60
2018-01-25T01:12:51.498Z,1.23
2018-01-25T01:15:20.191Z,1.90
2018-01-25T01:17:48.455Z,1.93
2018-01-25T01:20:18.038Z,1.00
2018-01-25T01:22:46.529Z,2.10
2018-01-25T01:25:14.793Z,1.20
2018-01-25T01:27:43.789Z,1.20
2018-01-25T01:30:12.036Z,1.03
2018-01-25T01:32:41.436Z,1.00
2018-01-25T01:35:11.013Z,1.50
2018-01-25T01:37:39.880Z,1.73
2018-01-25T01:40:08.154Z,1.20
2018-01-25T01:42:36.371Z,1.40
2018-01-25T01:45:04.596Z,1.07
2018-01-25T01:47:33.632Z,1.63
2018-01-25T01:50:01.878Z,1.27
2018-01-25T01:52:30.095Z,0.80
2018-01-25T01:55:00.876Z,0.93
2018-01-25T01:57:30.600Z,1.20
2018-01-25T01:59:59.955Z,1.13
2018-01-25T02:02:28.451Z,1.07
2018-01-25T02:04:58.020Z,1.10
2018-01-25T02:07:26.511Z,2.00
2018-01-25T02:09:55.126Z,0.90
2018-01-25T02:12:23.347Z,1.20
2018-01-25T02:14:51.619Z,1.57
2018-01-25T02:17:19.851Z,1.50
2018-01-25T02:19:48.081Z,1.80
2018-01-25T02:22:16.379Z,1.03
2018-01-25T02:24:46.124Z,1.27
2018-01-25T02:27:15.491Z,1.23
2018-01-25T02:29:43.781Z,1.40
2018-01-25T02:32:12.001Z,1.43
2018-01-25T02:34:40.224Z,2.57
2018-01-25T02:37:08.767Z,2.00
2018-01-25T02:39:37.751Z,1.53
2018-01-25T02:42:05.976Z,3.27
2018-01-25T02:44:35.003Z,4.03
2018-01-25T02:47:04.378Z,3.40
2018-01-25T02:49:33.952Z,5.10
2018-01-25T02:52:02.888Z,4.80
2018-01-25T02:54:31.894Z,3.63
2018-01-25T02:57:01.258Z,3.20
2018-01-25T02:59:30.881Z,2.87
2018-01-25T03:01:59.758Z,3.10
2018-01-25T03:04:27.980Z,3.27
2018-01-25T03:06:57.395Z,3.90
2018-01-25T03:09:25.619Z,3.53
2018-01-25T03:11:55.188Z,2.77
2018-01-25T03:14:23.726Z,2.63
2018-01-25T03:16:51.952Z,2.20
2018-01-25T03:19:21.714Z,2.30
2018-01-25T03:21:50.363Z,4.20
2018-01-25T03:24:18.600Z,1.50
2018-01-25T03:26:47.977Z,1.90
2018-01-25T03:29:16.280Z,2.63
2018-01-25T03:31:44.531Z,2.17
2018-01-25T03:34:13.524Z,3.67
2018-01-25T03:36:41.798Z,2.47
2018-01-25T03:39:11.151Z,2.73
2018-01-25T03:41:39.390Z,2.60
2018-01-25T03:44:07.643Z,3.63
2018-01-25T03:46:35.860Z,5.87
2018-01-25T03:49:04.109Z,2.10
2018-01-25T03:51:32.372Z,2.33
2018-01-25T03:54:01.383Z,2.47
2018-01-25T03:56:29.600Z,2.00
2018-01-25T03:58:59.382Z,3.13
2018-01-25T04:01:27.603Z,2.37
2018-01-25T04:03:55.838Z,1.90
2018-01-25T04:06:25.438Z,5.47
2018-01-25T04:08:54.317Z,2.40
2018-01-25T04:11:22.539Z,2.40
2018-01-25T04:13:50.846Z,2.47
2018-01-25T04:16:20.425Z,2.93
2018-01-25T04:18:48.950Z,2.50
2018-01-25T04:21:17.259Z,2.97
2018-01-25T04:23:45.483Z,5.10
2018-01-25T04:26:13.717Z,2.53
2018-01-25T04:28:42.743Z,6.33
2018-01-25T04:31:12.148Z,3.30
2018-01-25T04:33:41.111Z,5.83
2018-01-25T04:36:09.975Z,4.57
2018-01-25T04:38:39.344Z,4.63
2018-01-25T04:41:08.919Z,4.77
2018-01-25T04:43:38.744Z,4.43
2018-01-25T04:46:07.731Z,4.30
2018-01-25T04:48:37.747Z,7.30
2018-01-25T04:51:06.008Z,3.47
2018-01-25T04:53:35.010Z,4.73
2018-01-25T04:56:03.239Z,4.43
2018-01-25T04:58:32.668Z,3.47
2018-01-25T05:01:00.905Z,4.30
2018-01-25T05:03:29.134Z,2.97
2018-01-25T05:05:57.788Z,3.90
2018-01-25T05:08:26.418Z,2.83
2018-01-25T05:10:54.647Z,2.33
2018-01-25T05:13:24.062Z,2.93
2018-01-25T05:15:53.056Z,2.37
2018-01-25T05:18:21.294Z,3.17
2018-01-25T05:20:49.553Z,3.50
2018-01-25T05:23:17.796Z,4.40
2018-01-25T05:25:47.537Z,2.67
2018-01-25T05:28:16.851Z,1.60
2018-01-25T05:30:45.486Z,1.87
2018-01-25T05:33:13.707Z,2.80
2018-01-25T05:35:41.992Z,2.73
2018-01-25T05:38:10.229Z,2.60
2018-01-25T05:40:38.484Z,3.43
2018-01-25T05:43:07.543Z,4.70
2018-01-25T05:45:37.133Z,1.33
2018-01-25T05:48:05.620Z,3.53
2018-01-25T05:50:34.660Z,4.17
2018-01-25T05:53:04.236Z,2.63
2018-01-25T05:55:33.863Z,4.23
2018-01-25T05:58:02.875Z,3.93
2018-01-25T06:00:31.100Z,2.83
2018-01-25T06:02:59.747Z,9.30
2018-01-25T06:05:29.103Z,2.40
2018-01-25T06:07:57.340Z,5.53
2018-01-25T06:10:25.617Z,7.07
2018-01-25T06:12:53.840Z,3.80
2018-01-25T06:15:22.069Z,2.10
2018-01-25T06:17:50.350Z,1.50
2018-01-25T06:20:18.568Z,5.23
2018-01-25T06:22:46.788Z,3.00
2018-01-25T06:25:16.439Z,4.03
2018-01-25T06:27:44.935Z,3.43
2018-01-25T06:30:14.296Z,3.80
2018-01-25T06:32:42.777Z,6.87
2018-01-25T06:35:11.412Z,6.50
2018-01-25T06:37:39.658Z,5.27
2018-01-25T06:40:08.687Z,6.47
2018-01-25T06:42:38.282Z,9.50
2018-01-25T06:45:07.169Z,3.23
2018-01-25T06:47:35.444Z,2.83
2018-01-25T06:50:03.673Z,2.30
2018-01-25T06:52:31.896Z,4.57
2018-01-25T06:55:00.171Z,8.23
2018-01-25T06:57:28.398Z,9.93
2018-01-25T06:59:56.623Z,6.57
2018-01-25T07:02:24.881Z,6.17
2018-01-25T07:04:54.235Z,7.23
2018-01-25T07:07:22.464Z,9.60
2018-01-25T07:09:50.719Z,9.47
2018-01-25T07:12:18.947Z,6.20
2018-01-25T07:17:21.733Z,5.40
2018-01-25T07:19:50.343Z,4.07
2018-01-25T07:22:19.914Z,3.80
2018-01-25T07:24:48.840Z,5.93
2018-01-25T07:27:17.086Z,6.30
2018-01-25T07:29:46.666Z,7.60
2018-01-25T07:32:15.208Z,6.67
2018-01-25T07:34:44.782Z,5.23
2018-01-25T07:37:14.024Z,4.60
2018-01-25T07:39:42.672Z,8.77
2018-01-25T07:42:12.408Z,6.77
2018-01-25T07:44:40.661Z,11.13
2018-01-25T07:47:08.942Z,6.07
2018-01-25T07:49:38.710Z,8.93
2018-01-25T07:52:06.954Z,5.73
2018-01-25T07:54:35.222Z,11.90
2018-01-25T07:57:04.799Z,5.00
2018-01-25T07:59:33.287Z,6.80
2018-01-25T08:02:02.327Z,6.87
2018-01-25T08:04:31.899Z,7.23
2018-01-25T08:07:00.768Z,5.30
2018-01-25T08:09:29.050Z,8.37
2018-01-25T08:11:57.320Z,7.00
2018-01-25T08:14:27.033Z,8.37
2018-01-25T08:16:55.301Z,5.47
2018-01-25T08:19:23.528Z,13.07
2018-01-25T08:21:52.520Z,7.00
2018-01-25T08:24:21.920Z,6.63
2018-01-25T08:26:50.143Z,10.10
2018-01-25T08:29:18.372Z,10.03
2018-01-25T08:31:47.036Z,11.73
2018-01-25T08:34:16.042Z,10.00
2018-01-25T08:36:45.046Z,7.03
2018-01-25T08:39:13.299Z,11.53
2018-01-25T08:41:42.326Z,7.40
2018-01-25T08:44:10.564Z,10.03
2018-01-25T08:46:38.872Z,8.00
2018-01-25T08:49:07.107Z,10.47
2018-01-25T08:51:35.350Z,7.93
2018-01-25T08:54:04.749Z,7.90
2018-01-25T08:56:32.960Z,8.00
2018-01-25T08:59:01.951Z,8.23
2018-01-25T09:01:30.212Z,10.53
2018-01-25T09:03:59.958Z,8.33
2018-01-25T09:06:28.194Z,6.40
2018-01-25T09:08:56.458Z,8.47
2018-01-25T09:11:24.686Z,11.37
2018-01-25T09:13:53.679Z,5.80
2018-01-25T09:16:22.748Z,5.50
2018-01-25T09:18:50.982Z,8.33
2018-01-25T09:21:19.967Z,5.33
2018-01-25T09:23:48.240Z,9.33
2018-01-25T09:26:16.459Z,4.77
2018-01-25T09:28:44.681Z,5.23
2018-01-25T09:31:14.307Z,9.20
2018-01-25T09:33:42.408Z,5.47
2018-01-25T09:36:11.420Z,10.97
2018-01-25T09:38:39.713Z,9.23
2018-01-25T09:41:07.949Z,10.77
2018-01-25T09:43:36.201Z,4.40
2018-01-25T09:46:05.619Z,9.47
2018-01-25T09:48:34.228Z,4.73
2018-01-25T09:51:02.447Z,6.67
2018-01-25T09:53:32.221Z,7.63
2018-01-25T09:56:01.586Z,7.70
2018-01-25T09:58:31.175Z,6.03
2018-01-25T10:00:59.711Z,3.07
2018-01-25T10:03:27.939Z,5.00
2018-01-25T10:05:56.167Z,6.77
2018-01-25T10:08:24.426Z,5.27
2018-01-25T10:10:52.643Z,11.30
2018-01-25T10:13:21.263Z,9.67
2018-01-25T10:15:50.656Z,7.90
2018-01-25T10:18:18.880Z,6.53
2018-01-25T10:20:47.104Z,4.33
2018-01-25T10:23:15.555Z,8.07
2018-01-25T10:25:43.784Z,13.40
2018-01-25T10:28:12.024Z,9.33
2018-01-25T10:30:40.298Z,5.07
2018-01-25T10:33:09.703Z,7.23
2018-01-25T10:35:37.947Z,3.17
2018-01-25T10:38:07.360Z,3.40
2018-01-25T10:40:35.594Z,7.13
2018-01-25T10:43:04.579Z,6.40
2018-01-25T10:45:34.184Z,7.70
2018-01-25T10:48:02.275Z,9.67
2018-01-25T10:50:30.499Z,11.87
2018-01-25T10:53:00.123Z,7.20
2018-01-25T10:55:28.219Z,6.97
2018-01-25T10:57:56.456Z,9.43
2018-01-25T11:00:24.717Z,7.70
2018-01-25T11:02:52.940Z,8.63
2018-01-25T11:05:21.178Z,9.83
2018-01-25T11:07:50.797Z,7.17
2018-01-25T11:10:19.303Z,8.83
2018-01-25T11:12:47.524Z,7.80
2018-01-25T11:15:15.771Z,9.00
2018-01-25T11:17:44.006Z,9.63
2018-01-25T11:20:12.223Z,8.80
2018-01-25T11:22:40.498Z,14.73
2018-01-25T11:25:09.479Z,8.57
2018-01-25T11:27:37.717Z,7.20
2018-01-25T11:30:07.351Z,11.57
2018-01-25T11:32:36.618Z,14.80
2018-01-25T11:35:05.980Z,9.23
2018-01-25T11:37:34.240Z,6.03
2018-01-25T11:40:02.464Z,10.00
2018-01-25T11:42:30.692Z,11.40
2018-01-25T11:44:58.956Z,10.07
2018-01-25T11:47:28.687Z,9.70
2018-01-25T11:49:57.683Z,7.10
2018-01-25T11:52:25.941Z,11.57
2018-01-25T11:54:55.310Z,8.57
2018-01-25T11:57:23.544Z,8.87
2018-01-25T11:59:53.178Z,12.03
2018-01-25T12:02:21.302Z,3.70
2018-01-25T12:04:50.300Z,6.43
2018-01-25T12:07:18.598Z,9.00
2018-01-25T12:09:47.603Z,7.67
2018-01-25T12:12:17.178Z,9.07
2018-01-25T12:14:45.699Z,8.80
2018-01-25T12:17:13.932Z,5.83
2018-01-25T12:19:42.562Z,7.23
2018-01-25T12:22:11.962Z,7.33
2018-01-25T12:24:40.190Z,11.30
2018-01-25T12:27:09.197Z,11.10
2018-01-25T12:29:38.607Z,4.73
2018-01-25T12:32:06.874Z,7.23
2018-01-25T12:34:35.837Z,10.17
2018-01-25T12:37:05.603Z,12.47
2018-01-25T12:39:33.849Z,7.13
2018-01-25T12:42:02.064Z,8.70
2018-01-25T12:44:30.344Z,14.27
2018-01-25T12:46:59.340Z,15.03
2018-01-25T12:49:27.561Z,8.90
2018-01-25T12:51:57.159Z,6.60
2018-01-25T12:54:25.660Z,6.83
2018-01-25T12:56:55.241Z,9.50
2018-01-25T12:59:24.524Z,9.57
2018-01-25T13:01:52.768Z,9.17
2018-01-25T13:04:22.142Z,5.90
2018-01-25T13:06:52.916Z,6.73
2018-01-25T13:09:22.527Z,8.77
2018-01-25T13:11:51.534Z,9.80
2018-01-25T13:14:20.931Z,9.10
2018-01-25T13:16:50.519Z,10.80
2018-01-25T13:19:19.398Z,10.50
2018-01-25T13:21:47.706Z,11.43
2018-01-25T13:24:15.942Z,11.77
2018-01-25T13:26:45.110Z,9.00
2018-01-25T13:29:13.369Z,11.43
2018-01-25T13:31:41.592Z,7.73
2018-01-25T13:34:09.826Z,7.37
2018-01-25T13:36:38.091Z,8.53
2018-01-25T13:39:06.436Z,9.53
2018-01-25T13:41:34.660Z,6.43
2018-01-25T13:44:03.679Z,4.67
2018-01-25T13:46:32.672Z,15.17
2018-01-25T13:49:00.899Z,12.57
2018-01-25T13:51:30.510Z,11.20
2018-01-25T13:53:59.380Z,8.00
2018-01-25T13:56:28.735Z,10.03
2018-01-25T13:58:58.359Z,9.43
2018-01-25T14:01:27.231Z,10.33
2018-01-25T14:03:56.799Z,9.20
2018-01-25T14:06:26.299Z,9.80
2018-01-25T14:08:54.779Z,9.23
2018-01-25T14:11:24.147Z,10.93
2018-01-25T14:13:53.196Z,9.63
2018-01-25T14:16:22.777Z,6.50
2018-01-25T14:18:51.284Z,13.17
2018-01-25T14:21:19.588Z,10.67
2018-01-25T14:23:47.824Z,6.97
2018-01-25T14:26:16.062Z,12.20
2018-01-25T14:28:44.328Z,11.23
2018-01-25T14:31:12.551Z,10.10
2018-01-25T14:33:40.790Z,9.87
2018-01-25T14:36:10.563Z,7.17
2018-01-25T14:38:38.799Z,10.00
2018-01-25T14:41:07.209Z,8.27
2018-01-25T14:43:35.412Z,10.50
2018-01-25T14:46:04.404Z,10.70
2018-01-25T14:48:33.760Z,9.47
2018-01-25T14:51:02.798Z,9.17
2018-01-25T14:53:32.363Z,7.73
2018-01-25T14:56:00.861Z,4.60
2018-01-25T14:58:29.120Z,15.10
2018-01-25T15:00:58.116Z,11.70
2018-01-25T15:03:27.491Z,14.43
2018-01-25T15:05:55.782Z,6.30
2018-01-25T15:08:24.767Z,10.37
2018-01-25T15:10:54.504Z,13.57
2018-01-25T15:13:22.768Z,10.30
2018-01-25T15:15:51.007Z,10.17
2018-01-25T15:18:19.259Z,11.20
2018-01-25T15:20:48.682Z,10.00
2018-01-25T15:23:16.904Z,7.83
2018-01-25T15:25:50.859Z,5.80
2018-01-25T15:28:19.504Z,11.63
2018-01-25T15:30:48.511Z,11.30
2018-01-25T15:33:17.946Z,11.80
2018-01-25T15:35:46.940Z,12.17
2018-01-25T15:38:15.159Z,8.20
2018-01-25T15:40:43.419Z,9.20
2018-01-25T15:43:11.652Z,15.97
2018-01-25T15:45:39.884Z,12.90
2018-01-25T15:48:08.149Z,8.90
2018-01-25T15:50:36.393Z,12.77
2018-01-25T15:53:05.978Z,6.07
2018-01-25T15:55:34.125Z,6.47
2018-01-25T15:58:03.091Z,9.93
2018-01-25T16:00:32.466Z,9.70
2018-01-25T16:03:00.715Z,5.93
2018-01-25T16:05:28.974Z,10.67
2018-01-25T16:07:57.156Z,8.70
2018-01-25T16:10:26.563Z,8.47
2018-01-25T16:12:56.138Z,12.07
2018-01-25T16:15:24.638Z,4.83
2018-01-25T16:17:55.231Z,3.23
2018-01-25T16:20:24.104Z,3.97
2018-01-25T16:22:53.703Z,3.20
2018-01-25T16:25:21.852Z,3.03
2018-01-25T16:27:51.247Z,4.90
2018-01-25T16:30:19.508Z,1.93
2018-01-25T16:32:47.776Z,4.03
2018-01-25T16:35:15.995Z,1.47
2018-01-25T16:37:44.217Z,2.80
2018-01-25T16:40:13.844Z,3.23
2018-01-25T16:42:42.696Z,1.53
2018-01-25T16:45:10.943Z,3.90
2018-01-25T16:47:39.232Z,2.10
2018-01-25T16:50:08.236Z,1.00
2018-01-25T16:52:37.258Z,2.47
2018-01-25T16:55:05.511Z,2.03
2018-01-25T16:57:33.750Z,6.43
2018-01-25T17:00:03.330Z,2.13
2018-01-25T17:02:33.019Z,2.27
2018-01-25T17:05:01.242Z,2.00
2018-01-25T17:07:29.464Z,2.43
2018-01-25T17:09:59.075Z,2.47
2018-01-25T17:12:27.944Z,1.40
2018-01-25T17:14:57.531Z,1.17
2018-01-25T17:17:26.445Z,3.00
2018-01-25T17:19:54.684Z,2.27
2018-01-25T17:22:24.271Z,5.43
2018-01-25T17:24:53.195Z,1.60
2018-01-25T17:27:22.577Z,2.70
2018-01-25T17:29:50.821Z,3.80
2018-01-25T17:32:20.463Z,1.33
2018-01-25T17:34:49.383Z,1.10
2018-01-25T17:37:18.423Z,3.60
2018-01-25T17:39:46.684Z,1.83
2018-01-25T17:42:14.947Z,2.63
2018-01-25T17:44:43.218Z,1.20
2018-01-25T17:47:12.834Z,2.27
2018-01-25T17:49:43.048Z,2.00
2018-01-25T17:52:11.723Z,1.90
2018-01-25T17:54:41.366Z,5.13
2018-01-25T17:57:10.803Z,3.70
2018-01-25T17:59:39.296Z,2.27
2018-01-25T18:02:08.900Z,2.50
2018-01-25T18:04:37.772Z,2.73
2018-01-25T18:07:07.340Z,4.60
2018-01-25T18:09:36.818Z,4.57
2018-01-25T18:12:04.924Z,3.83
2018-01-25T18:14:33.967Z,2.57
2018-01-25T18:17:03.399Z,6.50
2018-01-25T18:19:32.008Z,3.10
2018-01-25T18:22:00.231Z,4.97
2018-01-25T18:24:28.530Z,4.97
2018-01-25T18:26:56.786Z,3.90
2018-01-25T18:29:25.064Z,5.23
2018-01-25T18:31:53.339Z,7.97
2018-01-25T18:34:21.574Z,6.80
2018-01-25T18:36:49.812Z,4.90
2018-01-25T18:39:18.082Z,6.13
2018-01-25T18:41:46.356Z,7.30
2018-01-25T18:44:15.794Z,4.43
2018-01-25T18:46:44.058Z,3.17
2018-01-25T18:49:12.945Z,7.43
2018-01-25T18:51:42.335Z,3.60
2018-01-25T18:54:11.783Z,7.20
2018-01-25T18:56:40.779Z,4.30
2018-01-25T18:59:08.996Z,5.80
2018-01-25T19:01:37.317Z,3.60
2018-01-25T19:04:06.966Z,6.13
2018-01-25T19:06:36.176Z,5.53
2018-01-25T19:09:05.210Z,5.43
2018-01-25T19:11:34.848Z,3.27
2018-01-25T19:14:02.936Z,6.90
2018-01-25T19:16:31.955Z,4.77
2018-01-25T19:19:00.939Z,5.23
2018-01-25T19:21:29.215Z,4.00
2018-01-25T19:23:57.466Z,6.33
2018-01-25T19:26:25.737Z,4.37
2018-01-25T19:28:53.994Z,5.43
2018-01-25T19:31:23.634Z,8.23
2018-01-25T19:33:53.088Z,6.00
2018-01-25T19:36:21.647Z,8.63
2018-01-25T19:38:51.306Z,3.87
2018-01-25T19:41:19.843Z,4.00
2018-01-25T19:43:48.076Z,4.47
2018-01-25T19:46:16.375Z,5.07
2018-01-25T19:48:44.635Z,4.17
2018-01-25T19:51:13.035Z,5.60
2018-01-25T19:53:41.294Z,8.23
2018-01-25T19:56:10.648Z,9.57
2018-01-25T19:58:40.285Z,6.70
2018-01-25T20:01:09.643Z,4.00
2018-01-25T20:03:37.919Z,5.80
2018-01-25T20:06:06.177Z,4.70
2018-01-25T20:08:35.556Z,4.20
2018-01-25T20:11:03.837Z,4.60
2018-01-25T20:13:33.397Z,5.30
2018-01-25T20:16:02.343Z,5.50
2018-01-25T20:18:30.603Z,5.00
2018-01-25T20:20:58.859Z,5.20
2018-01-25T20:23:28.489Z,3.57
2018-01-25T20:25:57.031Z,3.90
2018-01-25T20:28:25.999Z,8.87
2018-01-25T20:30:54.311Z,5.77
2018-01-25T20:33:22.537Z,4.63
2018-01-25T20:35:52.318Z,4.17
2018-01-25T20:38:20.595Z,5.63
2018-01-25T20:40:48.823Z,4.67
2018-01-25T20:43:17.867Z,4.17
2018-01-25T20:45:46.928Z,4.90
2018-01-25T20:48:15.199Z,4.17
2018-01-25T20:50:44.803Z,5.67
2018-01-25T20:53:14.321Z,5.10
2018-01-25T20:55:43.966Z,4.00
2018-01-25T20:58:12.175Z,4.83
2018-01-25T21:00:40.478Z,5.70
2018-01-25T21:03:08.705Z,8.37
2018-01-25T21:05:36.987Z,3.70
2018-01-25T21:08:06.058Z,3.80
2018-01-25T21:10:35.818Z,4.00
2018-01-25T21:13:04.082Z,4.90
2018-01-25T21:15:33.165Z,7.10
2018-01-25T21:18:02.569Z,8.07
2018-01-25T21:20:30.827Z,7.27
2018-01-25T21:22:59.449Z,6.10
2018-01-25T21:25:28.853Z,7.83
2018-01-25T21:27:57.074Z,9.07
2018-01-25T21:30:26.160Z,10.37
2018-01-25T21:32:55.492Z,8.23
2018-01-25T21:35:25.783Z,8.33
2018-01-25T21:37:55.440Z,8.37
2018-01-25T21:40:23.981Z,10.40
2018-01-25T21:42:52.267Z,9.63
2018-01-25T21:45:20.530Z,11.97
2018-01-25T21:47:48.810Z,7.43
2018-01-25T21:50:17.877Z,9.23
2018-01-25T21:52:46.177Z,12.63
2018-01-25T21:55:14.383Z,13.90
2018-01-25T21:57:42.659Z,7.70
2018-01-25T22:00:10.974Z,8.60
2018-01-25T22:02:39.238Z,11.60
2018-01-25T22:05:08.233Z,10.13
2018-01-25T22:07:36.500Z,12.73
2018-01-25T22:10:04.770Z,10.20
2018-01-25T22:12:33.791Z,10.40
2018-01-25T22:15:03.231Z,8.70
2018-01-25T22:17:31.497Z,8.07
2018-01-25T22:19:59.718Z,6.80
2018-01-25T22:22:29.104Z,9.30
2018-01-25T22:24:57.380Z,12.03
2018-01-25T22:27:25.604Z,10.50
2018-01-25T22:29:53.901Z,8.83
2018-01-25T22:32:23.490Z,10.50
2018-01-25T22:34:52.419Z,9.80
2018-01-25T22:37:22.087Z,8.50
2018-01-25T22:39:50.239Z,11.47
2018-01-25T22:42:20.033Z,10.47
2018-01-25T22:44:48.351Z,8.80
2018-01-25T22:47:16.558Z,8.77
2018-01-25T22:49:45.538Z,8.93
2018-01-25T22:52:14.956Z,12.27
2018-01-25T22:54:43.241Z,6.77
2018-01-25T22:57:11.551Z,8.20
2018-01-25T22:59:39.870Z,12.00
2018-01-25T23:02:08.122Z,9.83
2018-01-25T23:04:37.125Z,9.17
2018-01-25T23:07:05.390Z,9.83
2018-01-25T23:09:34.371Z,8.80
2018-01-25T23:12:03.359Z,9.43
2018-01-25T23:14:32.022Z,8.53
2018-01-25T23:17:01.594Z,8.00
2018-01-25T23:19:29.699Z,8.43
2018-01-25T23:21:58.348Z,9.77
2018-01-25T23:24:26.628Z,11.70
2018-01-25T23:26:56.344Z,9.63
2018-01-25T23:29:27.116Z,10.87
2018-01-25T23:31:56.362Z,9.00
2018-01-25T23:34:25.957Z,14.23
2018-01-25T23:36:55.458Z,14.43
2018-01-25T23:39:23.566Z,11.90
2018-01-25T23:41:51.793Z,11.27
2018-01-25T23:44:20.076Z,12.00
2018-01-25T23:46:49.089Z,12.17
2018-01-25T23:49:17.331Z,13.60
2018-01-25T23:51:46.350Z,8.90
2018-01-25T23:54:16.775Z,15.90
2018-01-25T23:56:45.271Z,8.20
2018-01-25T23:59:14.755Z,13.13
